sensor_id;sensor_type;location;lat;lon;timestamp;P1;durP1;ratioP1;P2;durP2;ratioP2
68353;SDS011;55274;43.060;25.618;2023-03-14T00:03:38;7.68;;;2.63;;
68353;SDS011;55274;43.060;25.618;2023-03-14T00:06:46;9.30;;;2.88;;
68353;SDS011;55274;43.060;25.618;2023-03-14T00:12:22;13.82;;;3.08;;
68353;SDS011;55274;43.060;25.618;2023-03-14T00:14:56;6.45;;;3.05;;
68353;SDS011;55274;43.060;25.618;2023-03-14T00:17:22;7.60;;;2.42;;
68353;SDS011;55274;43.060;25.618;2023-03-14T00:19:54;10.35;;;3.45;;
68353;SDS011;55274;43.060;25.618;2023-03-14T00:22:46;6.38;;;2.45;;
68353;SDS011;55274;43.060;25.618;2023-03-14T00:25:19;9.45;;;2.58;;
68353;SDS011;55274;43.060;25.618;2023-03-14T00:27:52;5.15;;;2.75;;
68353;SDS011;55274;43.060;25.618;2023-03-14T00:30:23;17.13;;;2.90;;
68353;SDS011;55274;43.060;25.618;2023-03-14T00:33:44;5.13;;;2.83;;
68353;SDS011;55274;43.060;25.618;2023-03-14T00:36:34;6.63;;;2.50;;
68353;SDS011;55274;43.060;25.618;2023-03-14T00:39:22;7.85;;;2.13;;
68353;SDS011;55274;43.060;25.618;2023-03-14T00:41:50;7.50;;;2.42;;
68353;SDS011;55274;43.060;25.618;2023-03-14T00:44:36;9.75;;;2.60;;
68353;SDS011;55274;43.060;25.618;2023-03-14T00:47:31;4.97;;;2.10;;
68353;SDS011;55274;43.060;25.618;2023-03-14T00:57:57;18.42;;;3.08;;
68353;SDS011;55274;43.060;25.618;2023-03-14T01:01:13;7.40;;;2.47;;
68353;SDS011;55274;43.060;25.618;2023-03-14T01:03:54;3.42;;;1.92;;
68353;SDS011;55274;43.060;25.618;2023-03-14T01:06:43;4.63;;;2.38;;
68353;SDS011;55274;43.060;25.618;2023-03-14T01:09:57;6.97;;;2.00;;
68353;SDS011;55274;43.060;25.618;2023-03-14T01:13:02;3.10;;;2.00;;
68353;SDS011;55274;43.060;25.618;2023-03-14T01:15:46;3.17;;;2.00;;
68353;SDS011;55274;43.060;25.618;2023-03-14T01:18:19;6.65;;;2.40;;
68353;SDS011;55274;43.060;25.618;2023-03-14T01:24:06;5.20;;;2.15;;
68353;SDS011;55274;43.060;25.618;2023-03-14T01:26:51;4.47;;;2.20;;
68353;SDS011;55274;43.060;25.618;2023-03-14T01:29:22;4.85;;;2.45;;
68353;SDS011;55274;43.060;25.618;2023-03-14T01:38:50;8.65;;;2.45;;
68353;SDS011;55274;43.060;25.618;2023-03-14T01:41:45;5.40;;;2.33;;
68353;SDS011;55274;43.060;25.618;2023-03-14T01:44:28;10.02;;;2.50;;
68353;SDS011;55274;43.060;25.618;2023-03-14T01:47:50;12.13;;;2.60;;
68353;SDS011;55274;43.060;25.618;2023-03-14T01:54:22;4.70;;;2.22;;
68353;SDS011;55274;43.060;25.618;2023-03-14T01:59:52;4.25;;;2.10;;
68353;SDS011;55274;43.060;25.618;2023-03-14T02:02:31;8.52;;;2.72;;
68353;SDS011;55274;43.060;25.618;2023-03-14T02:05:09;5.18;;;2.30;;
68353;SDS011;55274;43.060;25.618;2023-03-14T02:08:05;4.63;;;2.05;;
68353;SDS011;55274;43.060;25.618;2023-03-14T02:10:55;4.60;;;2.63;;
68353;SDS011;55274;43.060;25.618;2023-03-14T02:13:21;5.97;;;2.40;;
68353;SDS011;55274;43.060;25.618;2023-03-14T02:15:51;2.85;;;2.28;;
68353;SDS011;55274;43.060;25.618;2023-03-14T02:18:19;3.45;;;2.40;;
68353;SDS011;55274;43.060;25.618;2023-03-14T02:27:20;7.47;;;2.30;;
68353;SDS011;55274;43.060;25.618;2023-03-14T02:29:27;2.58;;;2.25;;
68353;SDS011;55274;43.060;25.618;2023-03-14T02:32:01;7.80;;;2.13;;
68353;SDS011;55274;43.060;25.618;2023-03-14T02:34:33;4.68;;;2.78;;
68353;SDS011;55274;43.060;25.618;2023-03-14T02:37:07;4.32;;;2.42;;
68353;SDS011;55274;43.060;25.618;2023-03-14T02:39:38;5.32;;;2.03;;
68353;SDS011;55274;43.060;25.618;2023-03-14T02:42:09;3.20;;;2.00;;
68353;SDS011;55274;43.060;25.618;2023-03-14T02:47:56;5.95;;;2.65;;
68353;SDS011;55274;43.060;25.618;2023-03-14T02:50:28;3.42;;;2.10;;
68353;SDS011;55274;43.060;25.618;2023-03-14T02:52:59;7.00;;;2.80;;
68353;SDS011;55274;43.060;25.618;2023-03-14T02:55:25;42.30;;;5.00;;
68353;SDS011;55274;43.060;25.618;2023-03-14T02:57:52;13.30;;;3.17;;
68353;SDS011;55274;43.060;25.618;2023-03-14T03:00:20;10.45;;;2.28;;
68353;SDS011;55274;43.060;25.618;2023-03-14T03:02:49;10.15;;;2.08;;
68353;SDS011;55274;43.060;25.618;2023-03-14T03:05:21;9.48;;;2.33;;
68353;SDS011;55274;43.060;25.618;2023-03-14T03:07:47;15.23;;;2.97;;
68353;SDS011;55274;43.060;25.618;2023-03-14T03:10:18;13.30;;;2.53;;
68353;SDS011;55274;43.060;25.618;2023-03-14T03:12:50;11.70;;;2.38;;
68353;SDS011;55274;43.060;25.618;2023-03-14T03:15:16;14.95;;;2.35;;
68353;SDS011;55274;43.060;25.618;2023-03-14T03:17:45;7.97;;;2.22;;
68353;SDS011;55274;43.060;25.618;2023-03-14T03:20:14;9.95;;;2.65;;
68353;SDS011;55274;43.060;25.618;2023-03-14T03:22:53;3.83;;;2.10;;
68353;SDS011;55274;43.060;25.618;2023-03-14T03:25:21;36.38;;;4.85;;
68353;SDS011;55274;43.060;25.618;2023-03-14T03:27:47;21.52;;;3.88;;
68353;SDS011;55274;43.060;25.618;2023-03-14T03:30:15;11.73;;;2.20;;
68353;SDS011;55274;43.060;25.618;2023-03-14T03:32:50;8.57;;;2.40;;
68353;SDS011;55274;43.060;25.618;2023-03-14T03:35:18;6.60;;;2.00;;
68353;SDS011;55274;43.060;25.618;2023-03-14T03:38:05;7.65;;;2.22;;
68353;SDS011;55274;43.060;25.618;2023-03-14T03:40:31;6.90;;;3.10;;
68353;SDS011;55274;43.060;25.618;2023-03-14T03:42:59;7.57;;;2.67;;
68353;SDS011;55274;43.060;25.618;2023-03-14T03:45:25;16.10;;;3.53;;
68353;SDS011;55274;43.060;25.618;2023-03-14T03:47:54;15.95;;;3.08;;
68353;SDS011;55274;43.060;25.618;2023-03-14T03:50:21;17.30;;;3.30;;
68353;SDS011;55274;43.060;25.618;2023-03-14T03:52:50;18.67;;;2.90;;
68353;SDS011;55274;43.060;25.618;2023-03-14T03:55:16;5.45;;;2.67;;
68353;SDS011;55274;43.060;25.618;2023-03-14T03:57:47;7.47;;;3.08;;
68353;SDS011;55274;43.060;25.618;2023-03-14T04:00:13;5.68;;;2.70;;
68353;SDS011;55274;43.060;25.618;2023-03-14T04:02:39;139.85;;;14.20;;
68353;SDS011;55274;43.060;25.618;2023-03-14T04:05:05;35.13;;;5.55;;
68353;SDS011;55274;43.060;25.618;2023-03-14T04:07:32;17.08;;;3.15;;
68353;SDS011;55274;43.060;25.618;2023-03-14T04:10:01;6.85;;;2.45;;
68353;SDS011;55274;43.060;25.618;2023-03-14T04:12:27;9.98;;;2.70;;
68353;SDS011;55274;43.060;25.618;2023-03-14T04:14:52;14.85;;;2.97;;
68353;SDS011;55274;43.060;25.618;2023-03-14T04:17:19;18.83;;;3.13;;
68353;SDS011;55274;43.060;25.618;2023-03-14T04:19:48;12.70;;;3.13;;
68353;SDS011;55274;43.060;25.618;2023-03-14T04:22:16;24.30;;;4.70;;
68353;SDS011;55274;43.060;25.618;2023-03-14T04:24:47;17.63;;;3.70;;
68353;SDS011;55274;43.060;25.618;2023-03-14T04:27:14;25.45;;;4.35;;
68353;SDS011;55274;43.060;25.618;2023-03-14T04:29:41;10.88;;;2.67;;
68353;SDS011;55274;43.060;25.618;2023-03-14T04:32:08;7.40;;;2.10;;
68353;SDS011;55274;43.060;25.618;2023-03-14T04:34:38;19.95;;;4.07;;
68353;SDS011;55274;43.060;25.618;2023-03-14T04:37:22;17.73;;;4.57;;
68353;SDS011;55274;43.060;25.618;2023-03-14T04:40:01;18.23;;;3.45;;
68353;SDS011;55274;43.060;25.618;2023-03-14T04:42:29;39.20;;;4.63;;
68353;SDS011;55274;43.060;25.618;2023-03-14T04:44:55;22.73;;;3.72;;
68353;SDS011;55274;43.060;25.618;2023-03-14T04:47:25;16.02;;;3.45;;
68353;SDS011;55274;43.060;25.618;2023-03-14T04:49:52;13.80;;;3.15;;
68353;SDS011;55274;43.060;25.618;2023-03-14T04:52:24;21.48;;;4.00;;
68353;SDS011;55274;43.060;25.618;2023-03-14T04:54:51;18.05;;;4.25;;
68353;SDS011;55274;43.060;25.618;2023-03-14T04:57:21;13.45;;;3.40;;
68353;SDS011;55274;43.060;25.618;2023-03-14T04:59:48;12.13;;;4.35;;
68353;SDS011;55274;43.060;25.618;2023-03-14T05:02:14;15.48;;;4.03;;
68353;SDS011;55274;43.060;25.618;2023-03-14T05:04:40;74.70;;;8.18;;
68353;SDS011;55274;43.060;25.618;2023-03-14T05:07:09;27.25;;;3.88;;
68353;SDS011;55274;43.060;25.618;2023-03-14T05:09:35;25.25;;;4.47;;
68353;SDS011;55274;43.060;25.618;2023-03-14T05:12:01;31.33;;;4.50;;
68353;SDS011;55274;43.060;25.618;2023-03-14T05:14:28;11.57;;;4.18;;
68353;SDS011;55274;43.060;25.618;2023-03-14T05:16:53;18.55;;;4.13;;
68353;SDS011;55274;43.060;25.618;2023-03-14T05:19:19;19.40;;;4.57;;
68353;SDS011;55274;43.060;25.618;2023-03-14T05:21:45;18.60;;;3.67;;
68353;SDS011;55274;43.060;25.618;2023-03-14T05:24:11;31.10;;;4.20;;
68353;SDS011;55274;43.060;25.618;2023-03-14T05:26:37;17.40;;;3.85;;
68353;SDS011;55274;43.060;25.618;2023-03-14T05:29:03;37.28;;;5.72;;
68353;SDS011;55274;43.060;25.618;2023-03-14T05:31:29;29.27;;;4.28;;
68353;SDS011;55274;43.060;25.618;2023-03-14T05:33:57;35.70;;;4.60;;
68353;SDS011;55274;43.060;25.618;2023-03-14T05:36:26;28.88;;;4.70;;
68353;SDS011;55274;43.060;25.618;2023-03-14T05:38:52;11.27;;;4.68;;
68353;SDS011;55274;43.060;25.618;2023-03-14T05:41:18;36.05;;;5.60;;
68353;SDS011;55274;43.060;25.618;2023-03-14T05:43:45;18.20;;;4.03;;
68353;SDS011;55274;43.060;25.618;2023-03-14T05:46:22;27.40;;;5.55;;
68353;SDS011;55274;43.060;25.618;2023-03-14T05:48:48;21.42;;;3.10;;
68353;SDS011;55274;43.060;25.618;2023-03-14T05:51:14;13.40;;;2.83;;
68353;SDS011;55274;43.060;25.618;2023-03-14T05:53:46;13.32;;;3.03;;
68353;SDS011;55274;43.060;25.618;2023-03-14T05:56:12;19.95;;;3.88;;
68353;SDS011;55274;43.060;25.618;2023-03-14T05:58:41;15.18;;;3.53;;
68353;SDS011;55274;43.060;25.618;2023-03-14T06:01:23;12.45;;;3.30;;
68353;SDS011;55274;43.060;25.618;2023-03-14T06:04:28;15.05;;;3.05;;
68353;SDS011;55274;43.060;25.618;2023-03-14T06:06:55;15.35;;;3.70;;
68353;SDS011;55274;43.060;25.618;2023-03-14T06:09:21;24.40;;;4.03;;
68353;SDS011;55274;43.060;25.618;2023-03-14T06:11:48;11.77;;;3.60;;
68353;SDS011;55274;43.060;25.618;2023-03-14T06:14:14;38.45;;;6.38;;
68353;SDS011;55274;43.060;25.618;2023-03-14T06:16:40;73.38;;;6.88;;
68353;SDS011;55274;43.060;25.618;2023-03-14T06:19:06;28.85;;;6.05;;
68353;SDS011;55274;43.060;25.618;2023-03-14T06:21:31;35.85;;;6.93;;
68353;SDS011;55274;43.060;25.618;2023-03-14T06:23:57;28.33;;;7.75;;
68353;SDS011;55274;43.060;25.618;2023-03-14T06:26:23;31.52;;;8.88;;
68353;SDS011;55274;43.060;25.618;2023-03-14T06:28:49;46.95;;;11.38;;
68353;SDS011;55274;43.060;25.618;2023-03-14T06:31:16;36.15;;;11.38;;
68353;SDS011;55274;43.060;25.618;2023-03-14T06:33:42;43.50;;;15.57;;
68353;SDS011;55274;43.060;25.618;2023-03-14T06:36:08;31.42;;;9.30;;
68353;SDS011;55274;43.060;25.618;2023-03-14T06:38:34;29.92;;;8.15;;
68353;SDS011;55274;43.060;25.618;2023-03-14T06:41:06;51.78;;;15.07;;
68353;SDS011;55274;43.060;25.618;2023-03-14T06:43:32;42.20;;;14.65;;
68353;SDS011;55274;43.060;25.618;2023-03-14T06:45:58;61.72;;;18.17;;
68353;SDS011;55274;43.060;25.618;2023-03-14T06:48:24;55.25;;;18.23;;
68353;SDS011;55274;43.060;25.618;2023-03-14T06:50:49;36.00;;;10.45;;
68353;SDS011;55274;43.060;25.618;2023-03-14T06:53:15;25.50;;;8.95;;
68353;SDS011;55274;43.060;25.618;2023-03-14T06:55:41;30.92;;;8.00;;
68353;SDS011;55274;43.060;25.618;2023-03-14T06:58:08;26.42;;;7.45;;
68353;SDS011;55274;43.060;25.618;2023-03-14T07:00:34;26.85;;;8.52;;
68353;SDS011;55274;43.060;25.618;2023-03-14T07:03:00;44.30;;;8.38;;
68353;SDS011;55274;43.060;25.618;2023-03-14T07:05:26;34.95;;;10.85;;
68353;SDS011;55274;43.060;25.618;2023-03-14T07:07:52;38.13;;;10.80;;
68353;SDS011;55274;43.060;25.618;2023-03-14T07:10:18;26.00;;;7.55;;
68353;SDS011;55274;43.060;25.618;2023-03-14T07:12:44;22.38;;;6.20;;
68353;SDS011;55274;43.060;25.618;2023-03-14T07:15:12;30.45;;;6.22;;
68353;SDS011;55274;43.060;25.618;2023-03-14T07:17:43;14.70;;;4.63;;
68353;SDS011;55274;43.060;25.618;2023-03-14T07:20:10;34.58;;;6.20;;
68353;SDS011;55274;43.060;25.618;2023-03-14T07:22:38;33.75;;;5.78;;
68353;SDS011;55274;43.060;25.618;2023-03-14T07:25:04;16.17;;;3.42;;
68353;SDS011;55274;43.060;25.618;2023-03-14T07:27:30;20.75;;;4.13;;
68353;SDS011;55274;43.060;25.618;2023-03-14T07:29:56;17.33;;;4.75;;
68353;SDS011;55274;43.060;25.618;2023-03-14T07:32:22;18.42;;;3.33;;
68353;SDS011;55274;43.060;25.618;2023-03-14T07:34:47;14.80;;;3.10;;
68353;SDS011;55274;43.060;25.618;2023-03-14T07:37:13;25.17;;;3.50;;
68353;SDS011;55274;43.060;25.618;2023-03-14T07:39:39;10.10;;;2.35;;
68353;SDS011;55274;43.060;25.618;2023-03-14T07:42:05;9.85;;;2.60;;
68353;SDS011;55274;43.060;25.618;2023-03-14T07:44:31;11.38;;;1.85;;
68353;SDS011;55274;43.060;25.618;2023-03-14T07:46:58;5.18;;;1.63;;
68353;SDS011;55274;43.060;25.618;2023-03-14T07:49:23;10.23;;;1.85;;
68353;SDS011;55274;43.060;25.618;2023-03-14T07:51:49;34.05;;;9.57;;
68353;SDS011;55274;43.060;25.618;2023-03-14T07:54:15;27.38;;;3.20;;
68353;SDS011;55274;43.060;25.618;2023-03-14T07:56:41;29.10;;;3.40;;
68353;SDS011;55274;43.060;25.618;2023-03-14T07:59:07;5.53;;;1.63;;
68353;SDS011;55274;43.060;25.618;2023-03-14T08:01:33;14.38;;;2.83;;
68353;SDS011;55274;43.060;25.618;2023-03-14T08:03:59;13.43;;;1.60;;
68353;SDS011;55274;43.060;25.618;2023-03-14T08:06:25;4.40;;;1.40;;
68353;SDS011;55274;43.060;25.618;2023-03-14T08:08:51;2.25;;;1.27;;
68353;SDS011;55274;43.060;25.618;2023-03-14T08:11:16;4.28;;;1.10;;
68353;SDS011;55274;43.060;25.618;2023-03-14T08:13:42;4.05;;;1.10;;
68353;SDS011;55274;43.060;25.618;2023-03-14T08:16:15;1.95;;;0.90;;
68353;SDS011;55274;43.060;25.618;2023-03-14T08:18:42;6.00;;;1.23;;
68353;SDS011;55274;43.060;25.618;2023-03-14T08:21:08;2.05;;;0.93;;
68353;SDS011;55274;43.060;25.618;2023-03-14T08:23:34;6.35;;;1.35;;
68353;SDS011;55274;43.060;25.618;2023-03-14T08:26:00;4.68;;;1.02;;
68353;SDS011;55274;43.060;25.618;2023-03-14T08:28:27;6.75;;;1.17;;
68353;SDS011;55274;43.060;25.618;2023-03-14T08:30:56;1.75;;;0.90;;
68353;SDS011;55274;43.060;25.618;2023-03-14T08:33:22;2.65;;;0.90;;
68353;SDS011;55274;43.060;25.618;2023-03-14T08:35:51;1.63;;;1.05;;
68353;SDS011;55274;43.060;25.618;2023-03-14T08:38:20;11.35;;;1.70;;
68353;SDS011;55274;43.060;25.618;2023-03-14T08:40:46;16.75;;;2.35;;
68353;SDS011;55274;43.060;25.618;2023-03-14T08:43:12;4.20;;;1.00;;
68353;SDS011;55274;43.060;25.618;2023-03-14T08:45:38;2.75;;;0.90;;
68353;SDS011;55274;43.060;25.618;2023-03-14T08:48:04;13.13;;;1.63;;
68353;SDS011;55274;43.060;25.618;2023-03-14T08:50:30;5.03;;;1.10;;
68353;SDS011;55274;43.060;25.618;2023-03-14T08:52:55;31.30;;;2.25;;
68353;SDS011;55274;43.060;25.618;2023-03-14T08:55:25;2.60;;;1.10;;
68353;SDS011;55274;43.060;25.618;2023-03-14T08:57:52;3.30;;;1.10;;
68353;SDS011;55274;43.060;25.618;2023-03-14T09:00:19;5.20;;;0.90;;
68353;SDS011;55274;43.060;25.618;2023-03-14T09:02:45;4.90;;;1.13;;
68353;SDS011;55274;43.060;25.618;2023-03-14T09:05:12;5.10;;;1.30;;
68353;SDS011;55274;43.060;25.618;2023-03-14T09:07:38;9.13;;;1.33;;
68353;SDS011;55274;43.060;25.618;2023-03-14T09:10:05;9.13;;;1.40;;
68353;SDS011;55274;43.060;25.618;2023-03-14T09:12:32;4.30;;;1.10;;
68353;SDS011;55274;43.060;25.618;2023-03-14T09:14:58;6.18;;;1.40;;
68353;SDS011;55274;43.060;25.618;2023-03-14T09:17:24;3.75;;;0.90;;
68353;SDS011;55274;43.060;25.618;2023-03-14T09:19:50;5.15;;;1.02;;
68353;SDS011;55274;43.060;25.618;2023-03-14T09:22:15;8.23;;;1.27;;
68353;SDS011;55274;43.060;25.618;2023-03-14T09:24:41;1.65;;;0.85;;
68353;SDS011;55274;43.060;25.618;2023-03-14T09:27:07;16.08;;;2.20;;
68353;SDS011;55274;43.060;25.618;2023-03-14T09:29:33;1.38;;;1.08;;
68353;SDS011;55274;43.060;25.618;2023-03-14T09:31:59;3.40;;;1.50;;
68353;SDS011;55274;43.060;25.618;2023-03-14T09:34:26;6.47;;;1.80;;
68353;SDS011;55274;43.060;25.618;2023-03-14T09:36:52;3.25;;;1.50;;
68353;SDS011;55274;43.060;25.618;2023-03-14T09:39:18;5.70;;;1.60;;
68353;SDS011;55274;43.060;25.618;2023-03-14T09:41:44;6.15;;;1.25;;
68353;SDS011;55274;43.060;25.618;2023-03-14T09:44:19;2.20;;;0.93;;
68353;SDS011;55274;43.060;25.618;2023-03-14T09:46:51;5.20;;;1.40;;
68353;SDS011;55274;43.060;25.618;2023-03-14T09:49:30;6.50;;;1.35;;
68353;SDS011;55274;43.060;25.618;2023-03-14T09:51:59;5.00;;;1.20;;
68353;SDS011;55274;43.060;25.618;2023-03-14T09:57:04;7.10;;;1.40;;
68353;SDS011;55274;43.060;25.618;2023-03-14T09:59:36;19.30;;;1.73;;
68353;SDS011;55274;43.060;25.618;2023-03-14T10:02:11;0.93;;;0.73;;
68353;SDS011;55274;43.060;25.618;2023-03-14T10:04:49;2.63;;;1.02;;
68353;SDS011;55274;43.060;25.618;2023-03-14T10:07:18;1.73;;;0.93;;
68353;SDS011;55274;43.060;25.618;2023-03-14T10:09:53;4.72;;;1.05;;
68353;SDS011;55274;43.060;25.618;2023-03-14T10:12:19;5.18;;;1.58;;
68353;SDS011;55274;43.060;25.618;2023-03-14T10:14:54;6.97;;;1.25;;
68353;SDS011;55274;43.060;25.618;2023-03-14T10:17:20;4.32;;;1.17;;
68353;SDS011;55274;43.060;25.618;2023-03-14T10:19:56;7.35;;;1.33;;
68353;SDS011;55274;43.060;25.618;2023-03-14T10:22:26;1.83;;;1.00;;
68353;SDS011;55274;43.060;25.618;2023-03-14T10:24:58;8.30;;;1.30;;
68353;SDS011;55274;43.060;25.618;2023-03-14T10:27:28;9.93;;;1.63;;
68353;SDS011;55274;43.060;25.618;2023-03-14T10:29:59;4.32;;;1.08;;
68353;SDS011;55274;43.060;25.618;2023-03-14T10:32:34;2.38;;;1.00;;
68353;SDS011;55274;43.060;25.618;2023-03-14T10:35:07;1.27;;;0.90;;
68353;SDS011;55274;43.060;25.618;2023-03-14T10:37:50;1.60;;;0.88;;
68353;SDS011;55274;43.060;25.618;2023-03-14T10:40:32;3.92;;;0.88;;
68353;SDS011;55274;43.060;25.618;2023-03-14T10:43:03;2.80;;;0.77;;
68353;SDS011;55274;43.060;25.618;2023-03-14T10:45:32;7.43;;;0.90;;
68353;SDS011;55274;43.060;25.618;2023-03-14T10:48:20;4.20;;;1.02;;
68353;SDS011;55274;43.060;25.618;2023-03-14T10:50:55;6.45;;;1.20;;
68353;SDS011;55274;43.060;25.618;2023-03-14T10:53:45;2.58;;;0.70;;
68353;SDS011;55274;43.060;25.618;2023-03-14T10:56:14;1.27;;;0.90;;
68353;SDS011;55274;43.060;25.618;2023-03-14T10:58:46;4.38;;;0.98;;
68353;SDS011;55274;43.060;25.618;2023-03-14T11:03:52;1.50;;;0.80;;
68353;SDS011;55274;43.060;25.618;2023-03-14T11:06:28;1.27;;;0.82;;
68353;SDS011;55274;43.060;25.618;2023-03-14T11:12:00;2.08;;;0.90;;
68353;SDS011;55274;43.060;25.618;2023-03-14T11:14:40;3.72;;;0.80;;
68353;SDS011;55274;43.060;25.618;2023-03-14T11:17:47;12.32;;;1.35;;
68353;SDS011;55274;43.060;25.618;2023-03-14T11:23:13;5.20;;;0.90;;
68353;SDS011;55274;43.060;25.618;2023-03-14T11:28:19;5.35;;;1.05;;
68353;SDS011;55274;43.060;25.618;2023-03-14T11:31:20;1.85;;;0.80;;
68353;SDS011;55274;43.060;25.618;2023-03-14T11:39:18;16.98;;;1.70;;
68353;SDS011;55274;43.060;25.618;2023-03-14T11:41:49;13.02;;;1.55;;
68353;SDS011;55274;43.060;25.618;2023-03-14T11:44:27;10.45;;;1.50;;
68353;SDS011;55274;43.060;25.618;2023-03-14T11:47:08;5.32;;;0.95;;
68353;SDS011;55274;43.060;25.618;2023-03-14T11:52:09;4.47;;;1.02;;
68353;SDS011;55274;43.060;25.618;2023-03-14T11:55:11;7.22;;;0.80;;
68353;SDS011;55274;43.060;25.618;2023-03-14T11:57:44;4.93;;;1.35;;
68353;SDS011;55274;43.060;25.618;2023-03-14T12:00:17;4.03;;;1.38;;
68353;SDS011;55274;43.060;25.618;2023-03-14T12:13:13;5.00;;;0.82;;
68353;SDS011;55274;43.060;25.618;2023-03-14T12:16:19;6.28;;;1.05;;
68353;SDS011;55274;43.060;25.618;2023-03-14T12:18:45;3.03;;;1.20;;
68353;SDS011;55274;43.060;25.618;2023-03-14T12:21:11;5.97;;;1.08;;
68353;SDS011;55274;43.060;25.618;2023-03-14T12:23:50;1.65;;;0.80;;
68353;SDS011;55274;43.060;25.618;2023-03-14T12:26:24;4.13;;;0.80;;
68353;SDS011;55274;43.060;25.618;2023-03-14T12:48:00;3.33;;;0.80;;
68353;SDS011;55274;43.060;25.618;2023-03-14T12:50:07;2.60;;;1.08;;
68353;SDS011;55274;43.060;25.618;2023-03-14T12:56:02;4.47;;;1.23;;
68353;SDS011;55274;43.060;25.618;2023-03-14T12:58:33;13.95;;;1.90;;
68353;SDS011;55274;43.060;25.618;2023-03-14T13:01:19;10.45;;;1.55;;
68353;SDS011;55274;43.060;25.618;2023-03-14T13:06:12;3.80;;;1.40;;
68353;SDS011;55274;43.060;25.618;2023-03-14T13:08:58;3.65;;;1.40;;
68353;SDS011;55274;43.060;25.618;2023-03-14T13:14:35;3.42;;;1.40;;
68353;SDS011;55274;43.060;25.618;2023-03-14T13:17:10;2.50;;;1.10;;
68353;SDS011;55274;43.060;25.618;2023-03-14T13:19:37;11.38;;;1.83;;
68353;SDS011;55274;43.060;25.618;2023-03-14T13:22:04;6.60;;;1.63;;
68353;SDS011;55274;43.060;25.618;2023-03-14T13:24:48;13.98;;;1.80;;
68353;SDS011;55274;43.060;25.618;2023-03-14T13:27:18;24.30;;;2.53;;
68353;SDS011;55274;43.060;25.618;2023-03-14T13:29:48;14.63;;;2.10;;
68353;SDS011;55274;43.060;25.618;2023-03-14T13:32:17;3.95;;;1.33;;
68353;SDS011;55274;43.060;25.618;2023-03-14T13:34:47;11.70;;;2.10;;
68353;SDS011;55274;43.060;25.618;2023-03-14T13:37:18;3.13;;;1.15;;
68353;SDS011;55274;43.060;25.618;2023-03-14T13:39:49;8.18;;;1.77;;
68353;SDS011;55274;43.060;25.618;2023-03-14T13:42:15;4.50;;;1.23;;
68353;SDS011;55274;43.060;25.618;2023-03-14T13:44:42;5.28;;;1.33;;
68353;SDS011;55274;43.060;25.618;2023-03-14T13:47:12;3.20;;;1.25;;
68353;SDS011;55274;43.060;25.618;2023-03-14T13:49:41;9.13;;;1.77;;
68353;SDS011;55274;43.060;25.618;2023-03-14T13:54:57;2.97;;;1.80;;
68353;SDS011;55274;43.060;25.618;2023-03-14T13:57:24;24.80;;;2.15;;
68353;SDS011;55274;43.060;25.618;2023-03-14T14:00:01;18.05;;;2.03;;
68353;SDS011;55274;43.060;25.618;2023-03-14T14:02:32;6.65;;;1.33;;
68353;SDS011;55274;43.060;25.618;2023-03-14T14:04:59;12.38;;;1.95;;
68353;SDS011;55274;43.060;25.618;2023-03-14T14:07:26;5.13;;;1.48;;
68353;SDS011;55274;43.060;25.618;2023-03-14T14:09:52;6.15;;;1.45;;
68353;SDS011;55274;43.060;25.618;2023-03-14T14:12:25;14.82;;;1.98;;
68353;SDS011;55274;43.060;25.618;2023-03-14T14:15:06;7.72;;;1.80;;
68353;SDS011;55274;43.060;25.618;2023-03-14T14:17:43;12.73;;;1.90;;
68353;SDS011;55274;43.060;25.618;2023-03-14T14:20:43;5.53;;;1.80;;
68353;SDS011;55274;43.060;25.618;2023-03-14T14:23:11;5.00;;;1.40;;
68353;SDS011;55274;43.060;25.618;2023-03-14T14:25:49;5.68;;;1.60;;
68353;SDS011;55274;43.060;25.618;2023-03-14T14:31:05;10.85;;;1.70;;
68353;SDS011;55274;43.060;25.618;2023-03-14T14:36:31;18.25;;;2.00;;
68353;SDS011;55274;43.060;25.618;2023-03-14T14:41:39;5.68;;;1.85;;
68353;SDS011;55274;43.060;25.618;2023-03-14T14:44:06;75.10;;;5.55;;
68353;SDS011;55274;43.060;25.618;2023-03-14T14:46:33;2.25;;;1.38;;
68353;SDS011;55274;43.060;25.618;2023-03-14T14:49:06;5.57;;;1.25;;
68353;SDS011;55274;43.060;25.618;2023-03-14T14:51:44;8.65;;;2.20;;
68353;SDS011;55274;43.060;25.618;2023-03-14T14:54:21;19.52;;;2.55;;
68353;SDS011;55274;43.060;25.618;2023-03-14T14:59:29;4.10;;;1.70;;
68353;SDS011;55274;43.060;25.618;2023-03-14T15:01:56;3.17;;;1.33;;
68353;SDS011;55274;43.060;25.618;2023-03-14T15:06:52;6.75;;;1.30;;
68353;SDS011;55274;43.060;25.618;2023-03-14T15:09:18;4.85;;;1.50;;
68353;SDS011;55274;43.060;25.618;2023-03-14T15:11:45;13.82;;;2.10;;
68353;SDS011;55274;43.060;25.618;2023-03-14T15:14:12;12.25;;;1.67;;
68353;SDS011;55274;43.060;25.618;2023-03-14T15:16:38;7.75;;;1.58;;
68353;SDS011;55274;43.060;25.618;2023-03-14T15:19:10;7.53;;;1.60;;
68353;SDS011;55274;43.060;25.618;2023-03-14T15:21:57;4.05;;;1.83;;
68353;SDS011;55274;43.060;25.618;2023-03-14T15:24:23;14.13;;;2.00;;
68353;SDS011;55274;43.060;25.618;2023-03-14T15:26:49;12.65;;;1.80;;
68353;SDS011;55274;43.060;25.618;2023-03-14T15:29:15;3.83;;;1.33;;
68353;SDS011;55274;43.060;25.618;2023-03-14T15:31:41;6.35;;;2.15;;
68353;SDS011;55274;43.060;25.618;2023-03-14T15:34:10;9.40;;;1.95;;
68353;SDS011;55274;43.060;25.618;2023-03-14T15:36:36;21.65;;;2.10;;
68353;SDS011;55274;43.060;25.618;2023-03-14T15:39:03;42.60;;;2.85;;
68353;SDS011;55274;43.060;25.618;2023-03-14T15:41:31;4.10;;;1.13;;
68353;SDS011;55274;43.060;25.618;2023-03-14T15:43:57;10.00;;;1.52;;
68353;SDS011;55274;43.060;25.618;2023-03-14T15:46:23;27.70;;;2.67;;
68353;SDS011;55274;43.060;25.618;2023-03-14T15:48:49;16.65;;;1.70;;
68353;SDS011;55274;43.060;25.618;2023-03-14T15:51:16;17.73;;;2.22;;
68353;SDS011;55274;43.060;25.618;2023-03-14T15:53:43;13.07;;;1.75;;
68353;SDS011;55274;43.060;25.618;2023-03-14T15:56:11;29.70;;;3.30;;
68353;SDS011;55274;43.060;25.618;2023-03-14T15:58:38;19.15;;;2.55;;
68353;SDS011;55274;43.060;25.618;2023-03-14T16:01:05;8.05;;;1.42;;
68353;SDS011;55274;43.060;25.618;2023-03-14T16:03:34;7.38;;;1.45;;
68353;SDS011;55274;43.060;25.618;2023-03-14T16:06:00;7.82;;;2.03;;
68353;SDS011;55274;43.060;25.618;2023-03-14T16:08:26;12.25;;;2.38;;
68353;SDS011;55274;43.060;25.618;2023-03-14T16:10:53;3.63;;;1.30;;
68353;SDS011;55274;43.060;25.618;2023-03-14T16:13:20;8.73;;;1.92;;
68353;SDS011;55274;43.060;25.618;2023-03-14T16:15:52;7.22;;;1.63;;
68353;SDS011;55274;43.060;25.618;2023-03-14T16:18:22;3.53;;;1.25;;
68353;SDS011;55274;43.060;25.618;2023-03-14T16:20:55;5.72;;;1.25;;
68353;SDS011;55274;43.060;25.618;2023-03-14T16:23:23;5.00;;;1.52;;
68353;SDS011;55274;43.060;25.618;2023-03-14T16:25:49;5.97;;;1.60;;
68353;SDS011;55274;43.060;25.618;2023-03-14T16:28:15;4.15;;;1.65;;
68353;SDS011;55274;43.060;25.618;2023-03-14T16:30:41;6.15;;;1.45;;
68353;SDS011;55274;43.060;25.618;2023-03-14T16:33:07;4.20;;;1.40;;
68353;SDS011;55274;43.060;25.618;2023-03-14T16:35:37;3.70;;;1.23;;
68353;SDS011;55274;43.060;25.618;2023-03-14T16:38:04;12.50;;;2.63;;
68353;SDS011;55274;43.060;25.618;2023-03-14T16:40:30;17.75;;;2.17;;
68353;SDS011;55274;43.060;25.618;2023-03-14T16:42:55;7.95;;;1.52;;
68353;SDS011;55274;43.060;25.618;2023-03-14T16:45:21;5.13;;;1.30;;
68353;SDS011;55274;43.060;25.618;2023-03-14T16:48:48;6.10;;;1.30;;